sensor_id;sensor_type;location;lat;lon;timestamp;pressure;altitude;pressure_sealevel;temperature;humidity
19590;BME280;12231;42.782;23.388;2023-02-10T00:00:44;97483.25;;;-5.87;97.85
19590;BME280;12231;42.782;23.388;2023-02-10T00:03:10;97488.84;;;-5.94;97.93
19590;BME280;12231;42.782;23.388;2023-02-10T00:05:35;97488.03;;;-5.93;97.80
19590;BME280;12231;42.782;23.388;2023-02-10T00:08:01;97488.09;;;-5.92;97.33
19590;BME280;12231;42.782;23.388;2023-02-10T00:10:26;97486.00;;;-6.03;97.96
19590;BME280;12231;42.782;23.388;2023-02-10T00:12:52;97485.19;;;-6.04;98.16
19590;BME280;12231;42.782;23.388;2023-02-10T00:15:17;97484.78;;;-6.14;98.34
19590;BME280;12231;42.782;23.388;2023-02-10T00:17:42;97479.16;;;-6.09;98.42
19590;BME280;12231;42.782;23.388;2023-02-10T00:20:08;97489.28;;;-6.06;98.41
19590;BME280;12231;42.782;23.388;2023-02-10T00:22:34;97476.06;;;-6.02;98.35
19590;BME280;12231;42.782;23.388;2023-02-10T00:24:59;97481.81;;;-6.04;98.33
19590;BME280;12231;42.782;23.388;2023-02-10T00:27:25;97481.47;;;-6.37;98.99
19590;BME280;12231;42.782;23.388;2023-02-10T00:29:51;97470.84;;;-6.31;99.64
19590;BME280;12231;42.782;23.388;2023-02-10T00:32:17;97470.22;;;-6.24;98.96
19590;BME280;12231;42.782;23.388;2023-02-10T00:34:44;97472.91;;;-6.20;98.56
19590;BME280;12231;42.782;23.388;2023-02-10T00:37:09;97475.28;;;-6.23;98.72
19590;BME280;12231;42.782;23.388;2023-02-10T00:39:35;97474.78;;;-6.38;99.20
19590;BME280;12231;42.782;23.388;2023-02-10T00:42:00;97468.94;;;-6.37;99.10
19590;BME280;12231;42.782;23.388;2023-02-10T00:44:25;97456.22;;;-6.43;99.16
19590;BME280;12231;42.782;23.388;2023-02-10T00:46:51;97466.38;;;-6.62;100.00
19590;BME280;12231;42.782;23.388;2023-02-10T00:49:16;97457.53;;;-6.52;100.00
19590;BME280;12231;42.782;23.388;2023-02-10T00:51:42;97458.63;;;-6.46;100.00
19590;BME280;12231;42.782;23.388;2023-02-10T00:54:08;97458.00;;;-6.39;100.00
19590;BME280;12231;42.782;23.388;2023-02-10T00:56:36;97451.34;;;-6.62;100.00
19590;BME280;12231;42.782;23.388;2023-02-10T00:59:01;97461.00;;;-6.49;100.00
19590;BME280;12231;42.782;23.388;2023-02-10T01:01:26;97452.06;;;-6.42;100.00
19590;BME280;12231;42.782;23.388;2023-02-10T01:03:52;97452.09;;;-6.41;100.00
19590;BME280;12231;42.782;23.388;2023-02-10T01:06:17;97451.41;;;-6.37;100.00
19590;BME280;12231;42.782;23.388;2023-02-10T01:08:43;97451.44;;;-6.35;100.00
19590;BME280;12231;42.782;23.388;2023-02-10T01:11:09;97449.66;;;-6.39;100.00
19590;BME280;12231;42.782;23.388;2023-02-10T01:13:36;97448.88;;;-6.37;100.00
19590;BME280;12231;42.782;23.388;2023-02-10T01:16:11;97442.75;;;-6.45;100.00
19590;BME280;12231;42.782;23.388;2023-02-10T01:18:39;97438.59;;;-6.44;100.00
19590;BME280;12231;42.782;23.388;2023-02-10T01:21:10;97442.75;;;-6.45;100.00
19590;BME280;12231;42.782;23.388;2023-02-10T01:23:36;97437.53;;;-6.51;100.00
19590;BME280;12231;42.782;23.388;2023-02-10T01:26:02;97444.00;;;-6.57;100.00
19590;BME280;12231;42.782;23.388;2023-02-10T01:28:28;97437.03;;;-6.64;100.00
19590;BME280;12231;42.782;23.388;2023-02-10T01:30:53;97440.88;;;-6.74;100.00
19590;BME280;12231;42.782;23.388;2023-02-10T01:33:19;97439.28;;;-6.72;100.00
19590;BME280;12231;42.782;23.388;2023-02-10T01:35:44;97437.41;;;-6.77;100.00
19590;BME280;12231;42.782;23.388;2023-02-10T01:38:09;97428.34;;;-6.74;100.00
19590;BME280;12231;42.782;23.388;2023-02-10T01:40:35;97430.91;;;-6.72;100.00
19590;BME280;12231;42.782;23.388;2023-02-10T01:43:00;97429.06;;;-6.76;100.00
19590;BME280;12231;42.782;23.388;2023-02-10T01:45:32;97419.81;;;-6.79;100.00
19590;BME280;12231;42.782;23.388;2023-02-10T01:47:59;97418.28;;;-6.75;100.00
19590;BME280;12231;42.782;23.388;2023-02-10T01:50:29;97421.84;;;-6.91;100.00
19590;BME280;12231;42.782;23.388;2023-02-10T01:52:57;97421.25;;;-6.85;100.00
19590;BME280;12231;42.782;23.388;2023-02-10T01:55:26;97417.25;;;-6.80;100.00
19590;BME280;12231;42.782;23.388;2023-02-10T01:57:55;97415.72;;;-6.77;100.00
19590;BME280;12231;42.782;23.388;2023-02-10T02:00:22;97414.75;;;-6.80;100.00
19590;BME280;12231;42.782;23.388;2023-02-10T02:02:49;97408.81;;;-6.82;100.00
19590;BME280;12231;42.782;23.388;2023-02-10T02:05:35;97410.47;;;-6.83;100.00
19590;BME280;12231;42.782;23.388;2023-02-10T02:08:11;97412.19;;;-6.82;100.00
19590;BME280;12231;42.782;23.388;2023-02-10T02:16:09;97400.19;;;-6.90;100.00
19590;BME280;12231;42.782;23.388;2023-02-10T02:18:47;97409.34;;;-6.91;100.00
19590;BME280;12231;42.782;23.388;2023-02-10T02:22:06;97400.19;;;-6.90;100.00
19590;BME280;12231;42.782;23.388;2023-02-10T02:30:45;97397.25;;;-7.02;100.00
19590;BME280;12231;42.782;23.388;2023-02-10T02:33:55;97388.78;;;-7.06;100.00
19590;BME280;12231;42.782;23.388;2023-02-10T02:36:29;97388.00;;;-7.03;100.00
19590;BME280;12231;42.782;23.388;2023-02-10T02:39:00;97391.22;;;-7.07;100.00
19590;BME280;12231;42.782;23.388;2023-02-10T02:41:26;97381.19;;;-7.07;100.00
19590;BME280;12231;42.782;23.388;2023-02-10T02:43:52;97382.94;;;-7.05;100.00
19590;BME280;12231;42.782;23.388;2023-02-10T02:46:46;97381.94;;;-7.10;100.00
19590;BME280;12231;42.782;23.388;2023-02-10T02:52:02;97381.06;;;-7.11;100.00
19590;BME280;12231;42.782;23.388;2023-02-10T02:54:37;97386.94;;;-7.10;100.00
19590;BME280;12231;42.782;23.388;2023-02-10T02:57:15;97374.53;;;-7.07;100.00
19590;BME280;12231;42.782;23.388;2023-02-10T02:59:51;97382.72;;;-7.11;100.00
19590;BME280;12231;42.782;23.388;2023-02-10T03:02:21;97381.88;;;-7.12;100.00
19590;BME280;12231;42.782;23.388;2023-02-10T03:04:47;97379.22;;;-7.16;100.00
19590;BME280;12231;42.782;23.388;2023-02-10T03:07:13;97372.25;;;-7.23;100.00
19590;BME280;12231;42.782;23.388;2023-02-10T03:09:40;97379.44;;;-7.32;100.00
19590;BME280;12231;42.782;23.388;2023-02-10T03:12:06;97380.97;;;-7.36;100.00
19590;BME280;12231;42.782;23.388;2023-02-10T03:14:31;97385.16;;;-7.35;100.00
19590;BME280;12231;42.782;23.388;2023-02-10T03:16:57;97376.88;;;-7.34;100.00
19590;BME280;12231;42.782;23.388;2023-02-10T03:19:23;97382.56;;;-7.38;100.00
19590;BME280;12231;42.782;23.388;2023-02-10T03:21:48;97377.50;;;-7.39;100.00
19590;BME280;12231;42.782;23.388;2023-02-10T03:24:14;97383.41;;;-7.37;100.00
19590;BME280;12231;42.782;23.388;2023-02-10T03:26:42;97388.25;;;-7.42;100.00
19590;BME280;12231;42.782;23.388;2023-02-10T03:29:07;97385.59;;;-7.67;100.00
19590;BME280;12231;42.782;23.388;2023-02-10T03:31:33;97385.84;;;-7.61;100.00
19590;BME280;12231;42.782;23.388;2023-02-10T03:33:58;97385.28;;;-7.54;100.00
19590;BME280;12231;42.782;23.388;2023-02-10T03:36:23;97387.13;;;-7.50;100.00
19590;BME280;12231;42.782;23.388;2023-02-10T03:38:49;97387.75;;;-7.76;100.00
19590;BME280;12231;42.782;23.388;2023-02-10T03:41:14;97385.44;;;-7.71;100.00
19590;BME280;12231;42.782;23.388;2023-02-10T03:43:40;97387.75;;;-7.76;100.00
19590;BME280;12231;42.782;23.388;2023-02-10T03:46:09;97382.06;;;-7.72;100.00
19590;BME280;12231;42.782;23.388;2023-02-10T03:48:35;97376.19;;;-7.72;100.00
19590;BME280;12231;42.782;23.388;2023-02-10T03:51:03;97377.34;;;-7.64;100.00
19590;BME280;12231;42.782;23.388;2023-02-10T03:53:29;97372.06;;;-7.72;100.00
19590;BME280;12231;42.782;23.388;2023-02-10T03:55:55;97371.72;;;-7.81;100.00
19590;BME280;12231;42.782;23.388;2023-02-10T03:58:21;97366.78;;;-7.79;100.00
19590;BME280;12231;42.782;23.388;2023-02-10T04:00:47;97369.16;;;-7.82;100.00
19590;BME280;12231;42.782;23.388;2023-02-10T04:03:12;97361.72;;;-7.81;100.00
19590;BME280;12231;42.782;23.388;2023-02-10T04:05:38;97368.47;;;-7.78;100.00
19590;BME280;12231;42.782;23.388;2023-02-10T04:08:04;97369.28;;;-7.79;100.00
19590;BME280;12231;42.782;23.388;2023-02-10T04:10:29;97371.66;;;-7.82;100.00
19590;BME280;12231;42.782;23.388;2023-02-10T04:12:55;97373.13;;;-7.87;100.00
19590;BME280;12231;42.782;23.388;2023-02-10T04:15:20;97371.47;;;-7.87;100.00
19590;BME280;12231;42.782;23.388;2023-02-10T04:17:46;97368.06;;;-7.89;100.00
19590;BME280;12231;42.782;23.388;2023-02-10T04:20:12;97373.91;;;-7.88;100.00
19590;BME280;12231;42.782;23.388;2023-02-10T04:22:38;97368.78;;;-7.91;100.00
19590;BME280;12231;42.782;23.388;2023-02-10T04:25:04;97364.41;;;-7.97;100.00
19590;BME280;12231;42.782;23.388;2023-02-10T04:27:29;97365.25;;;-7.96;100.00
19590;BME280;12231;42.782;23.388;2023-02-10T04:29:55;97371.06;;;-7.97;100.00
19590;BME280;12231;42.782;23.388;2023-02-10T04:32:21;97369.97;;;-8.04;100.00
19590;BME280;12231;42.782;23.388;2023-02-10T04:34:46;97371.53;;;-8.06;100.00
19590;BME280;12231;42.782;23.388;2023-02-10T04:37:11;97364.91;;;-8.05;100.00
19590;BME280;12231;42.782;23.388;2023-02-10T04:39:37;97371.53;;;-8.06;100.00
19590;BME280;12231;42.782;23.388;2023-02-10T04:42:02;97367.00;;;-8.14;100.00
19590;BME280;12231;42.782;23.388;2023-02-10T04:44:28;97366.38;;;-8.10;100.00
19590;BME280;12231;42.782;23.388;2023-02-10T04:46:53;97372.28;;;-8.08;100.00
19590;BME280;12231;42.782;23.388;2023-02-10T04:49:19;97370.56;;;-8.09;100.00
19590;BME280;12231;42.782;23.388;2023-02-10T04:51:44;97373.81;;;-8.12;100.00
19590;BME280;12231;42.782;23.388;2023-02-10T04:54:10;97376.25;;;-8.13;100.00
19590;BME280;12231;42.782;23.388;2023-02-10T04:56:35;97375.56;;;-8.09;100.00
19590;BME280;12231;42.782;23.388;2023-02-10T04:59:00;97376.38;;;-8.10;100.00
19590;BME280;12231;42.782;23.388;2023-02-10T05:01:26;97383.88;;;-8.10;100.00
19590;BME280;12231;42.782;23.388;2023-02-10T05:03:51;97382.88;;;-8.14;100.00
19590;BME280;12231;42.782;23.388;2023-02-10T05:06:17;97388.75;;;-8.13;100.00
19590;BME280;12231;42.782;23.388;2023-02-10T05:08:43;97396.56;;;-8.26;100.00
19590;BME280;12231;42.782;23.388;2023-02-10T05:11:13;97398.09;;;-8.30;100.00
19590;BME280;12231;42.782;23.388;2023-02-10T05:13:39;97399.84;;;-8.27;100.00
19590;BME280;12231;42.782;23.388;2023-02-10T05:16:07;97399.06;;;-8.26;100.00
19590;BME280;12231;42.782;23.388;2023-02-10T05:18:33;97399.72;;;-8.10;100.00
19590;BME280;12231;42.782;23.388;2023-02-10T05:21:00;97404.03;;;-7.85;100.00
19590;BME280;12231;42.782;23.388;2023-02-10T05:23:26;97409.47;;;-7.32;100.00
19590;BME280;12231;42.782;23.388;2023-02-10T05:25:52;97411.22;;;-7.30;100.00
19590;BME280;12231;42.782;23.388;2023-02-10T05:28:18;97407.38;;;-7.22;100.00
19590;BME280;12231;42.782;23.388;2023-02-10T05:30:43;97415.63;;;-7.24;100.00
19590;BME280;12231;42.782;23.388;2023-02-10T05:33:09;97420.44;;;-6.84;100.00
19590;BME280;12231;42.782;23.388;2023-02-10T05:35:34;97417.84;;;-7.10;100.00
19590;BME280;12231;42.782;23.388;2023-02-10T05:38:00;97417.38;;;-7.22;100.00
19590;BME280;12231;42.782;23.388;2023-02-10T05:40:27;97423.84;;;-6.60;100.00
19590;BME280;12231;42.782;23.388;2023-02-10T05:42:53;97427.53;;;-6.73;100.00
19590;BME280;12231;42.782;23.388;2023-02-10T05:45:18;97426.22;;;-6.63;100.00
19590;BME280;12231;42.782;23.388;2023-02-10T05:47:44;97427.09;;;-6.39;100.00
19590;BME280;12231;42.782;23.388;2023-02-10T05:50:09;97442.41;;;-6.55;97.49
19590;BME280;12231;42.782;23.388;2023-02-10T05:52:34;97431.78;;;-6.25;94.94
19590;BME280;12231;42.782;23.388;2023-02-10T05:55:00;97440.94;;;-6.02;93.23
19590;BME280;12231;42.782;23.388;2023-02-10T05:57:25;97434.16;;;-5.78;90.73
19590;BME280;12231;42.782;23.388;2023-02-10T05:59:50;97437.91;;;-5.65;88.99
19590;BME280;12231;42.782;23.388;2023-02-10T06:02:16;97433.91;;;-5.33;87.92
19590;BME280;12231;42.782;23.388;2023-02-10T06:04:41;97439.41;;;-4.90;85.46
19590;BME280;12231;42.782;23.388;2023-02-10T06:07:07;97437.72;;;-4.62;82.49
19590;BME280;12231;42.782;23.388;2023-02-10T06:09:32;97445.22;;;-4.34;80.26
19590;BME280;12231;42.782;23.388;2023-02-10T06:11:57;97447.63;;;-4.07;79.16
19590;BME280;12231;42.782;23.388;2023-02-10T06:14:23;97448.50;;;-3.72;75.77
19590;BME280;12231;42.782;23.388;2023-02-10T06:16:51;97444.97;;;-3.46;75.15
19590;BME280;12231;42.782;23.388;2023-02-10T06:19:16;97452.81;;;-2.99;73.90
19590;BME280;12231;42.782;23.388;2023-02-10T06:21:42;97445.50;;;-2.48;70.81
19590;BME280;12231;42.782;23.388;2023-02-10T06:24:07;97445.31;;;-2.15;68.49
19590;BME280;12231;42.782;23.388;2023-02-10T06:26:33;97448.25;;;-1.94;67.45
19590;BME280;12231;42.782;23.388;2023-02-10T06:28:58;97455.31;;;-1.75;66.49
19590;BME280;12231;42.782;23.388;2023-02-10T06:31:23;97449.66;;;-1.11;64.65
19590;BME280;12231;42.782;23.388;2023-02-10T06:33:50;97451.38;;;-1.61;61.96
19590;BME280;12231;42.782;23.388;2023-02-10T06:36:16;97449.09;;;-0.91;64.41
19590;BME280;12231;42.782;23.388;2023-02-10T06:38:41;97445.28;;;0.07;60.55
19590;BME280;12231;42.782;23.388;2023-02-10T06:41:07;97451.16;;;0.94;56.43
19590;BME280;12231;42.782;23.388;2023-02-10T06:43:32;97447.31;;;1.52;55.02
19590;BME280;12231;42.782;23.388;2023-02-10T06:45:58;97451.38;;;1.23;54.19
19590;BME280;12231;42.782;23.388;2023-02-10T06:48:24;97440.63;;;1.71;54.38
19590;BME280;12231;42.782;23.388;2023-02-10T06:50:49;97437.47;;;2.60;52.21
19590;BME280;12231;42.782;23.388;2023-02-10T06:53:14;97443.38;;;3.24;49.33
19590;BME280;12231;42.782;23.388;2023-02-10T06:55:40;97444.91;;;3.93;47.63
19590;BME280;12231;42.782;23.388;2023-02-10T06:58:05;97442.28;;;4.08;46.56
19590;BME280;12231;42.782;23.388;2023-02-10T07:00:31;97450.78;;;4.07;45.63
19590;BME280;12231;42.782;23.388;2023-02-10T07:02:59;97442.28;;;4.05;45.49
19590;BME280;12231;42.782;23.388;2023-02-10T07:05:24;97440.66;;;3.93;46.21
19590;BME280;12231;42.782;23.388;2023-02-10T07:07:50;97444.03;;;4.01;46.03
19590;BME280;12231;42.782;23.388;2023-02-10T07:10:17;97436.31;;;4.07;45.36
19590;BME280;12231;42.782;23.388;2023-02-10T07:12:43;97430.97;;;4.51;45.47
19590;BME280;12231;42.782;23.388;2023-02-10T07:15:08;97427.31;;;4.87;44.18
19590;BME280;12231;42.782;23.388;2023-02-10T07:17:34;97429.63;;;5.15;44.77
19590;BME280;12231;42.782;23.388;2023-02-10T07:20:02;97426.88;;;5.35;44.14
19590;BME280;12231;42.782;23.388;2023-02-10T07:22:27;97423.41;;;5.40;43.20
19590;BME280;12231;42.782;23.388;2023-02-10T07:24:53;97420.38;;;5.81;42.66
19590;BME280;12231;42.782;23.388;2023-02-10T07:27:18;97422.06;;;5.87;42.17
19590;BME280;12231;42.782;23.388;2023-02-10T07:29:43;97427.09;;;5.93;41.73
19590;BME280;12231;42.782;23.388;2023-02-10T07:32:09;97428.59;;;6.10;42.28
19590;BME280;12231;42.782;23.388;2023-02-10T07:34:34;97421.28;;;6.47;41.59
19590;BME280;12231;42.782;23.388;2023-02-10T07:37:01;97434.09;;;6.47;41.61
19590;BME280;12231;42.782;23.388;2023-02-10T07:39:26;97428.66;;;6.06;42.76
19590;BME280;12231;42.782;23.388;2023-02-10T07:41:52;97427.16;;;6.53;42.04
19590;BME280;12231;42.782;23.388;2023-02-10T07:44:18;97425.78;;;6.30;40.03
19590;BME280;12231;42.782;23.388;2023-02-10T07:46:46;97428.03;;;6.51;41.60
19590;BME280;12231;42.782;23.388;2023-02-10T07:49:11;97423.72;;;7.58;38.62
19590;BME280;12231;42.782;23.388;2023-02-10T07:51:37;97408.34;;;8.40;37.76
19590;BME280;12231;42.782;23.388;2023-02-10T07:54:02;97406.19;;;8.19;37.94
19590;BME280;12231;42.782;23.388;2023-02-10T07:56:28;97412.09;;;8.62;36.82
19590;BME280;12231;42.782;23.388;2023-02-10T07:58:54;97403.34;;;9.39;35.92
19590;BME280;12231;42.782;23.388;2023-02-10T08:01:19;97399.72;;;10.09;33.88
19590;BME280;12231;42.782;23.388;2023-02-10T08:03:44;97401.31;;;10.13;34.05
19590;BME280;12231;42.782;23.388;2023-02-10T08:06:10;97403.31;;;10.02;34.59
19590;BME280;12231;42.782;23.388;2023-02-10T08:08:35;97395.25;;;9.85;34.19
19590;BME280;12231;42.782;23.388;2023-02-10T08:11:04;97412.72;;;7.51;38.10
19590;BME280;12231;42.782;23.388;2023-02-10T08:13:30;97413.03;;;7.79;38.02
19590;BME280;12231;42.782;23.388;2023-02-10T08:15:55;97408.09;;;8.11;37.81
19590;BME280;12231;42.782;23.388;2023-02-10T08:18:21;97403.63;;;8.60;37.26
19590;BME280;12231;42.782;23.388;2023-02-10T08:20:46;97400.75;;;9.41;34.45
19590;BME280;12231;42.782;23.388;2023-02-10T08:23:16;97391.63;;;9.91;34.12
19590;BME280;12231;42.782;23.388;2023-02-10T08:25:42;97396.19;;;9.81;34.04
19590;BME280;12231;42.782;23.388;2023-02-10T08:28:07;97399.16;;;9.02;34.77
19590;BME280;12231;42.782;23.388;2023-02-10T08:30:32;97408.84;;;8.56;36.26
19590;BME280;12231;42.782;23.388;2023-02-10T08:32:58;97391.47;;;9.97;33.83
19590;BME280;12231;42.782;23.388;2023-02-10T08:35:24;97396.03;;;10.74;32.86
19590;BME280;12231;42.782;23.388;2023-02-10T08:37:49;97400.91;;;9.35;34.58
19590;BME280;12231;42.782;23.388;2023-02-10T08:40:15;97403.19;;;9.45;34.05
19590;BME280;12231;42.782;23.388;2023-02-10T08:42:40;97402.91;;;8.89;36.52
19590;BME280;12231;42.782;23.388;2023-02-10T08:45:06;97398.72;;;8.86;35.04
19590;BME280;12231;42.782;23.388;2023-02-10T08:47:33;97404.44;;;8.21;35.75
19590;BME280;12231;42.782;23.388;2023-02-10T08:49:58;97398.63;;;9.55;33.59
19590;BME280;12231;42.782;23.388;2023-02-10T08:52:24;97396.66;;;9.64;34.14
19590;BME280;12231;42.782;23.388;2023-02-10T08:54:49;97402.44;;;7.51;37.10
19590;BME280;12231;42.782;23.388;2023-02-10T08:57:14;97393.63;;;8.83;35.39
19590;BME280;12231;42.782;23.388;2023-02-10T08:59:40;97393.00;;;8.74;35.31
19590;BME280;12231;42.782;23.388;2023-02-10T09:02:06;97383.41;;;9.47;34.08
19590;BME280;12231;42.782;23.388;2023-02-10T09:04:31;97378.84;;;9.57;33.76
19590;BME280;12231;42.782;23.388;2023-02-10T09:06:57;97375.78;;;10.35;32.33
19590;BME280;12231;42.782;23.388;2023-02-10T09:09:24;97372.22;;;10.92;32.26
19590;BME280;12231;42.782;23.388;2023-02-10T09:11:52;97377.03;;;10.49;32.89
19590;BME280;12231;42.782;23.388;2023-02-10T09:14:18;97375.81;;;10.61;32.08
19590;BME280;12231;42.782;23.388;2023-02-10T09:16:44;97376.69;;;10.87;31.64
19590;BME280;12231;42.782;23.388;2023-02-10T09:19:09;97373.91;;;10.11;32.59
19590;BME280;12231;42.782;23.388;2023-02-10T09:21:34;97368.13;;;10.03;34.16
19590;BME280;12231;42.782;23.388;2023-02-10T09:24:00;97374.25;;;10.57;31.92
19590;BME280;12231;42.782;23.388;2023-02-10T09:26:25;97379.63;;;9.60;33.37
19590;BME280;12231;42.782;23.388;2023-02-10T09:28:51;97372.41;;;10.02;32.77
19590;BME280;12231;42.782;23.388;2023-02-10T09:31:17;97382.06;;;7.86;35.31
19590;BME280;12231;42.782;23.388;2023-02-10T09:33:43;97367.47;;;9.35;33.67
19590;BME280;12231;42.782;23.388;2023-02-10T09:36:13;97364.59;;;10.34;31.28
19590;BME280;12231;42.782;23.388;2023-02-10T09:38:38;97357.94;;;9.37;34.21
19590;BME280;12231;42.782;23.388;2023-02-10T09:54:08;97330.66;;;13.06;28.17
19590;BME280;12231;42.782;23.388;2023-02-10T09:56:35;97322.69;;;13.11;28.36
19590;BME280;12231;42.782;23.388;2023-02-10T09:59:01;97338.09;;;10.58;30.00
19590;BME280;12231;42.782;23.388;2023-02-10T10:01:37;97329.81;;;10.49;31.45
19590;BME280;12231;42.782;23.388;2023-02-10T10:04:14;97320.03;;;11.83;30.26
19590;BME280;12231;42.782;23.388;2023-02-10T10:06:52;97304.69;;;12.88;29.52
19590;BME280;12231;42.782;23.388;2023-02-10T10:09:42;97307.75;;;13.37;28.47
19590;BME280;12231;42.782;23.388;2023-02-10T10:12:13;97304.88;;;14.01;27.03
19590;BME280;12231;42.782;23.388;2023-02-10T10:14:41;97304.69;;;12.01;28.03
19590;BME280;12231;42.782;23.388;2023-02-10T10:25:57;97298.47;;;10.06;30.98
19590;BME280;12231;42.782;23.388;2023-02-10T10:31:17;97278.59;;;12.51;29.05
19590;BME280;12231;42.782;23.388;2023-02-10T10:36:22;97275.66;;;11.72;28.17
19590;BME280;12231;42.782;23.388;2023-02-10T10:38:51;97286.66;;;9.40;31.79
19590;BME280;12231;42.782;23.388;2023-02-10T10:41:18;97276.69;;;9.88;31.66
19590;BME280;12231;42.782;23.388;2023-02-10T10:43:51;97270.13;;;9.49;31.42
19590;BME280;12231;42.782;23.388;2023-02-10T10:49:00;97260.25;;;9.03;32.69
19590;BME280;12231;42.782;23.388;2023-02-10T10:51:26;97266.38;;;9.60;32.19
19590;BME280;12231;42.782;23.388;2023-02-10T10:53:57;97266.31;;;9.62;32.08
19590;BME280;12231;42.782;23.388;2023-02-10T10:58:49;97259.50;;;10.18;31.10
19590;BME280;12231;42.782;23.388;2023-02-10T11:01:16;97245.00;;;9.86;31.43
19590;BME280;12231;42.782;23.388;2023-02-10T11:03:41;97258.69;;;8.32;34.54
19590;BME280;12231;42.782;23.388;2023-02-10T11:06:17;97249.97;;;8.38;34.15
19590;BME280;12231;42.782;23.388;2023-02-10T11:08:54;97256.47;;;8.15;34.62
19590;BME280;12231;42.782;23.388;2023-02-10T11:11:31;97259.94;;;7.76;35.24
19590;BME280;12231;42.782;23.388;2023-02-10T11:13:57;97256.22;;;7.50;35.93
19590;BME280;12231;42.782;23.388;2023-02-10T11:16:23;97257.47;;;8.08;35.81
19590;BME280;12231;42.782;23.388;2023-02-10T11:18:59;97244.47;;;8.53;35.94
19590;BME280;12231;42.782;23.388;2023-02-10T11:21:36;97236.63;;;8.57;35.88
19590;BME280;12231;42.782;23.388;2023-02-10T11:24:02;97249.94;;;8.02;35.44
19590;BME280;12231;42.782;23.388;2023-02-10T11:26:28;97241.84;;;8.19;36.17
19590;BME280;12231;42.782;23.388;2023-02-10T11:28:54;97236.00;;;8.48;36.33
19590;BME280;12231;42.782;23.388;2023-02-10T11:33:55;97228.97;;;8.20;37.05
19590;BME280;12231;42.782;23.388;2023-02-10T11:36:29;97220.13;;;8.33;35.95
19590;BME280;12231;42.782;23.388;2023-02-10T11:39:04;97224.06;;;8.47;36.09
19590;BME280;12231;42.782;23.388;2023-02-10T11:41:31;97224.50;;;7.93;36.99
19590;BME280;12231;42.782;23.388;2023-02-10T11:43:57;97220.59;;;8.12;35.31
19590;BME280;12231;42.782;23.388;2023-02-10T11:46:26;97215.88;;;7.18;36.79
19590;BME280;12231;42.782;23.388;2023-02-10T11:49:00;97221.88;;;6.74;38.33
19590;BME280;12231;42.782;23.388;2023-02-10T11:51:28;97218.09;;;6.93;38.75
19590;BME280;12231;42.782;23.388;2023-02-10T11:53:55;97215.03;;;7.57;36.82
19590;BME280;12231;42.782;23.388;2023-02-10T11:59:41;97200.69;;;7.49;36.66
19590;BME280;12231;42.782;23.388;2023-02-10T12:02:34;97204.81;;;7.56;36.16
19590;BME280;12231;42.782;23.388;2023-02-10T12:05:15;97195.78;;;7.40;36.51
19590;BME280;12231;42.782;23.388;2023-02-10T12:10:44;97188.44;;;7.23;36.44
19590;BME280;12231;42.782;23.388;2023-02-10T12:16:02;97185.00;;;7.23;37.57
19590;BME280;12231;42.782;23.388;2023-02-10T12:26:41;97172.47;;;7.09;36.20
19590;BME280;12231;42.782;23.388;2023-02-10T12:29:30;97178.47;;;6.18;37.46
19590;BME280;12231;42.782;23.388;2023-02-10T12:32:58;97169.06;;;6.67;36.06
19590;BME280;12231;42.782;23.388;2023-02-10T12:41:25;97168.88;;;6.32;37.47
19590;BME280;12231;42.782;23.388;2023-02-10T12:57:45;97154.84;;;7.34;35.29
19590;BME280;12231;42.782;23.388;2023-02-10T13:00:28;97145.41;;;6.97;36.03
19590;BME280;12231;42.782;23.388;2023-02-10T13:05:42;97154.91;;;6.92;35.60
19590;BME280;12231;42.782;23.388;2023-02-10T13:08:14;97155.25;;;7.17;35.67
19590;BME280;12231;42.782;23.388;2023-02-10T13:10:45;97149.16;;;7.59;35.61
19590;BME280;12231;42.782;23.388;2023-02-10T13:13:28;97154.13;;;6.89;35.14
19590;BME280;12231;42.782;23.388;2023-02-10T13:15:59;97148.75;;;6.99;36.64
19590;BME280;12231;42.782;23.388;2023-02-10T13:18:30;97149.00;;;6.89;36.10
19590;BME280;12231;42.782;23.388;2023-02-10T13:21:23;97148.22;;;6.84;36.51
19590;BME280;12231;42.782;23.388;2023-02-10T13:24:21;97151.66;;;6.84;36.98
19590;BME280;12231;42.782;23.388;2023-02-10T13:27:20;97151.69;;;6.83;37.45
19590;BME280;12231;42.782;23.388;2023-02-10T13:30:05;97150.09;;;7.17;35.77
19590;BME280;12231;42.782;23.388;2023-02-10T13:35:23;97142.50;;;7.13;34.91
19590;BME280;12231;42.782;23.388;2023-02-10T13:37:52;97145.84;;;6.75;36.11
19590;BME280;12231;42.782;23.388;2023-02-10T13:40:24;97144.56;;;6.53;36.39
19590;BME280;12231;42.782;23.388;2023-02-10T13:43:00;97146.06;;;6.64;35.99
19590;BME280;12231;42.782;23.388;2023-02-10T13:45:28;97141.19;;;6.51;35.95
19590;BME280;12231;42.782;23.388;2023-02-10T13:47:57;97137.72;;;6.55;36.31
19590;BME280;12231;42.782;23.388;2023-02-10T13:50:41;97136.00;;;6.54;35.79
19590;BME280;12231;42.782;23.388;2023-02-10T13:53:38;97131.50;;;6.66;37.70
19590;BME280;12231;42.782;23.388;2023-02-10T13:59:01;97113.34;;;10.93;57.43
19590;BME280;12231;42.782;23.388;2023-02-10T14:01:47;97110.66;;;12.86;40.93
19590;BME280;12231;42.782;23.388;2023-02-10T14:06:46;97103.66;;;14.15;42.12
19590;BME280;12231;42.782;23.388;2023-02-10T14:11:53;97085.91;;;17.16;30.49
19590;BME280;12231;42.782;23.388;2023-02-10T14:14:31;97092.81;;;17.17;28.88
19590;BME280;12231;42.782;23.388;2023-02-10T14:19:37;97095.63;;;15.03;23.82
19590;BME280;12231;42.782;23.388;2023-02-10T14:22:05;97113.91;;;11.01;27.71
19590;BME280;12231;42.782;23.388;2023-02-10T14:24:34;97116.72;;;10.95;27.27
19590;BME280;12231;42.782;23.388;2023-02-10T14:27:03;97120.66;;;10.82;28.69
19590;BME280;12231;42.782;23.388;2023-02-10T14:29:31;97121.81;;;8.88;30.35
19590;BME280;12231;42.782;23.388;2023-02-10T14:32:00;97119.56;;;8.78;30.62
19590;BME280;12231;42.782;23.388;2023-02-10T14:34:34;97119.25;;;8.88;32.55
19590;BME280;12231;42.782;23.388;2023-02-10T14:37:15;97113.94;;;7.66;33.04
19590;BME280;12231;42.782;23.388;2023-02-10T14:39:50;97111.13;;;7.75;33.99